sensor_id;sensor_type;location;lat;lon;timestamp;P1;durP1;ratioP1;P2;durP2;ratioP2
30533;SDS011;73248;52.398;9.814;2023-11-19T00:00:26;1.85;;;0.98;;
30533;SDS011;73248;52.398;9.814;2023-11-19T00:02:54;1.60;;;1.30;;
30533;SDS011;73248;52.398;9.814;2023-11-19T00:05:20;1.38;;;0.77;;
30533;SDS011;73248;52.398;9.814;2023-11-19T00:07:48;1.55;;;0.88;;
30533;SDS011;73248;52.398;9.814;2023-11-19T00:10:15;0.88;;;0.80;;
30533;SDS011;73248;52.398;9.814;2023-11-19T00:12:44;0.82;;;0.73;;
30533;SDS011;73248;52.398;9.814;2023-11-19T00:15:11;0.90;;;0.90;;
30533;SDS011;73248;52.398;9.814;2023-11-19T00:17:38;0.90;;;0.88;;
30533;SDS011;73248;52.398;9.814;2023-11-19T00:20:17;1.13;;;0.70;;
30533;SDS011;73248;52.398;9.814;2023-11-19T00:22:43;0.75;;;0.70;;
30533;SDS011;73248;52.398;9.814;2023-11-19T00:25:11;0.90;;;0.80;;
30533;SDS011;73248;52.398;9.814;2023-11-19T00:27:36;2.25;;;0.73;;
30533;SDS011;73248;52.398;9.814;2023-11-19T00:30:03;1.75;;;0.80;;
30533;SDS011;73248;52.398;9.814;2023-11-19T00:32:32;0.82;;;0.73;;
30533;SDS011;73248;52.398;9.814;2023-11-19T00:34:58;1.17;;;0.70;;
30533;SDS011;73248;52.398;9.814;2023-11-19T00:37:23;0.82;;;0.82;;
30533;SDS011;73248;52.398;9.814;2023-11-19T00:39:49;1.90;;;0.80;;
30533;SDS011;73248;52.398;9.814;2023-11-19T00:42:17;1.13;;;0.60;;
30533;SDS011;73248;52.398;9.814;2023-11-19T00:44:43;1.10;;;1.00;;
30533;SDS011;73248;52.398;9.814;2023-11-19T00:47:20;0.70;;;0.68;;
30533;SDS011;73248;52.398;9.814;2023-11-19T00:49:46;2.45;;;0.82;;
30533;SDS011;73248;52.398;9.814;2023-11-19T00:52:15;0.93;;;0.70;;
30533;SDS011;73248;52.398;9.814;2023-11-19T00:54:44;0.68;;;0.68;;
30533;SDS011;73248;52.398;9.814;2023-11-19T00:57:10;2.08;;;0.90;;
30533;SDS011;73248;52.398;9.814;2023-11-19T00:59:36;2.70;;;0.57;;
30533;SDS011;73248;52.398;9.814;2023-11-19T01:02:02;1.33;;;0.90;;
30533;SDS011;73248;52.398;9.814;2023-11-19T01:04:34;0.80;;;0.80;;
30533;SDS011;73248;52.398;9.814;2023-11-19T01:07:03;0.90;;;0.80;;
30533;SDS011;73248;52.398;9.814;2023-11-19T01:09:37;0.80;;;0.77;;
30533;SDS011;73248;52.398;9.814;2023-11-19T01:12:03;1.17;;;0.80;;
30533;SDS011;73248;52.398;9.814;2023-11-19T01:14:29;0.90;;;0.80;;
30533;SDS011;73248;52.398;9.814;2023-11-19T01:16:55;2.35;;;1.10;;
30533;SDS011;73248;52.398;9.814;2023-11-19T01:19:25;0.80;;;0.73;;
30533;SDS011;73248;52.398;9.814;2023-11-19T01:21:53;0.85;;;0.80;;
30533;SDS011;73248;52.398;9.814;2023-11-19T01:24:21;1.65;;;0.95;;
30533;SDS011;73248;52.398;9.814;2023-11-19T01:26:47;2.17;;;0.82;;
30533;SDS011;73248;52.398;9.814;2023-11-19T01:29:14;0.77;;;0.70;;
30533;SDS011;73248;52.398;9.814;2023-11-19T01:31:43;0.63;;;0.63;;
30533;SDS011;73248;52.398;9.814;2023-11-19T01:34:10;1.15;;;0.75;;
30533;SDS011;73248;52.398;9.814;2023-11-19T01:36:36;0.82;;;0.77;;
30533;SDS011;73248;52.398;9.814;2023-11-19T01:39:02;0.73;;;0.60;;
30533;SDS011;73248;52.398;9.814;2023-11-19T01:44:00;0.55;;;0.52;;
30533;SDS011;73248;52.398;9.814;2023-11-19T01:46:26;0.80;;;0.70;;
30533;SDS011;73248;52.398;9.814;2023-11-19T01:48:52;1.00;;;0.52;;
30533;SDS011;73248;52.398;9.814;2023-11-19T01:53:48;1.00;;;0.77;;
30533;SDS011;73248;52.398;9.814;2023-11-19T01:56:15;2.15;;;0.98;;
30533;SDS011;73248;52.398;9.814;2023-11-19T01:58:41;1.80;;;0.47;;
30533;SDS011;73248;52.398;9.814;2023-11-19T02:01:09;3.42;;;0.65;;
30533;SDS011;73248;52.398;9.814;2023-11-19T02:03:36;0.65;;;0.60;;
30533;SDS011;73248;52.398;9.814;2023-11-19T02:06:04;1.58;;;0.75;;
30533;SDS011;73248;52.398;9.814;2023-11-19T02:08:30;2.20;;;0.75;;
30533;SDS011;73248;52.398;9.814;2023-11-19T02:10:56;0.63;;;0.35;;
30533;SDS011;73248;52.398;9.814;2023-11-19T02:13:23;1.17;;;0.80;;
30533;SDS011;73248;52.398;9.814;2023-11-19T02:15:50;1.10;;;0.47;;
30533;SDS011;73248;52.398;9.814;2023-11-19T02:18:26;0.73;;;0.52;;
30533;SDS011;73248;52.398;9.814;2023-11-19T02:20:56;0.60;;;0.50;;
30533;SDS011;73248;52.398;9.814;2023-11-19T02:23:28;1.25;;;0.60;;
30533;SDS011;73248;52.398;9.814;2023-11-19T02:28:41;0.40;;;0.40;;
30533;SDS011;73248;52.398;9.814;2023-11-19T02:31:08;2.35;;;0.70;;
30533;SDS011;73248;52.398;9.814;2023-11-19T02:33:35;0.80;;;0.60;;
30533;SDS011;73248;52.398;9.814;2023-11-19T02:36:01;0.25;;;0.25;;
30533;SDS011;73248;52.398;9.814;2023-11-19T02:38:28;4.60;;;0.43;;
30533;SDS011;73248;52.398;9.814;2023-11-19T02:40:55;0.20;;;0.20;;
30533;SDS011;73248;52.398;9.814;2023-11-19T02:43:21;0.22;;;0.22;;
30533;SDS011;73248;52.398;9.814;2023-11-19T02:45:50;0.50;;;0.32;;
30533;SDS011;73248;52.398;9.814;2023-11-19T02:48:20;0.17;;;0.17;;
30533;SDS011;73248;52.398;9.814;2023-11-19T02:50:48;1.83;;;0.30;;
30533;SDS011;73248;52.398;9.814;2023-11-19T02:53:13;0.73;;;0.38;;
30533;SDS011;73248;52.398;9.814;2023-11-19T02:55:41;0.90;;;0.38;;
30533;SDS011;73248;52.398;9.814;2023-11-19T02:58:13;0.60;;;0.40;;
30533;SDS011;73248;52.398;9.814;2023-11-19T03:00:45;0.20;;;0.20;;
30533;SDS011;73248;52.398;9.814;2023-11-19T03:03:21;0.30;;;0.30;;
30533;SDS011;73248;52.398;9.814;2023-11-19T03:05:51;1.27;;;0.30;;
30533;SDS011;73248;52.398;9.814;2023-11-19T03:08:16;0.57;;;0.28;;
30533;SDS011;73248;52.398;9.814;2023-11-19T03:10:42;1.17;;;0.30;;
30533;SDS011;73248;52.398;9.814;2023-11-19T03:13:11;0.20;;;0.20;;
30533;SDS011;73248;52.398;9.814;2023-11-19T03:15:40;0.70;;;0.32;;
30533;SDS011;73248;52.398;9.814;2023-11-19T03:18:06;1.48;;;0.40;;
30533;SDS011;73248;52.398;9.814;2023-11-19T03:20:32;4.45;;;0.45;;
30533;SDS011;73248;52.398;9.814;2023-11-19T03:23:04;0.55;;;0.20;;
30533;SDS011;73248;52.398;9.814;2023-11-19T03:25:31;0.40;;;0.30;;
30533;SDS011;73248;52.398;9.814;2023-11-19T03:28:01;0.57;;;0.35;;
30533;SDS011;73248;52.398;9.814;2023-11-19T03:30:28;0.40;;;0.40;;
30533;SDS011;73248;52.398;9.814;2023-11-19T03:32:54;0.50;;;0.40;;
30533;SDS011;73248;52.398;9.814;2023-11-19T03:35:20;3.78;;;0.40;;
30533;SDS011;73248;52.398;9.814;2023-11-19T03:37:46;1.40;;;0.50;;
30533;SDS011;73248;52.398;9.814;2023-11-19T03:40:13;0.45;;;0.43;;
30533;SDS011;73248;52.398;9.814;2023-11-19T03:42:39;0.45;;;0.40;;
30533;SDS011;73248;52.398;9.814;2023-11-19T03:45:06;0.50;;;0.45;;
30533;SDS011;73248;52.398;9.814;2023-11-19T03:47:33;0.43;;;0.40;;
30533;SDS011;73248;52.398;9.814;2023-11-19T03:49:59;0.98;;;0.45;;
30533;SDS011;73248;52.398;9.814;2023-11-19T03:52:25;0.50;;;0.50;;
30533;SDS011;73248;52.398;9.814;2023-11-19T03:54:53;0.85;;;0.70;;
30533;SDS011;73248;52.398;9.814;2023-11-19T03:57:22;0.50;;;0.43;;
30533;SDS011;73248;52.398;9.814;2023-11-19T03:59:48;0.82;;;0.60;;
30533;SDS011;73248;52.398;9.814;2023-11-19T04:02:16;0.70;;;0.50;;
30533;SDS011;73248;52.398;9.814;2023-11-19T04:04:42;0.57;;;0.52;;
30533;SDS011;73248;52.398;9.814;2023-11-19T04:07:08;0.68;;;0.52;;
30533;SDS011;73248;52.398;9.814;2023-11-19T04:09:34;0.80;;;0.60;;
30533;SDS011;73248;52.398;9.814;2023-11-19T04:12:00;0.73;;;0.60;;
30533;SDS011;73248;52.398;9.814;2023-11-19T04:14:26;2.15;;;0.70;;
30533;SDS011;73248;52.398;9.814;2023-11-19T04:16:52;0.80;;;0.60;;
30533;SDS011;73248;52.398;9.814;2023-11-19T04:19:18;0.60;;;0.57;;
30533;SDS011;73248;52.398;9.814;2023-11-19T04:21:44;0.85;;;0.65;;
30533;SDS011;73248;52.398;9.814;2023-11-19T04:24:11;0.63;;;0.63;;
30533;SDS011;73248;52.398;9.814;2023-11-19T04:26:41;1.27;;;0.90;;
30533;SDS011;73248;52.398;9.814;2023-11-19T04:29:14;0.95;;;0.75;;
30533;SDS011;73248;52.398;9.814;2023-11-19T04:31:44;0.60;;;0.55;;
30533;SDS011;73248;52.398;9.814;2023-11-19T04:34:11;1.38;;;0.80;;
30533;SDS011;73248;52.398;9.814;2023-11-19T04:36:37;1.13;;;0.90;;
30533;SDS011;73248;52.398;9.814;2023-11-19T04:39:02;1.10;;;0.70;;
30533;SDS011;73248;52.398;9.814;2023-11-19T04:41:34;3.80;;;1.42;;
30533;SDS011;73248;52.398;9.814;2023-11-19T04:44:00;1.08;;;0.98;;
30533;SDS011;73248;52.398;9.814;2023-11-19T04:46:26;1.05;;;0.93;;
30533;SDS011;73248;52.398;9.814;2023-11-19T04:48:54;2.67;;;1.40;;
30533;SDS011;73248;52.398;9.814;2023-11-19T04:51:20;4.22;;;1.58;;
30533;SDS011;73248;52.398;9.814;2023-11-19T04:53:47;3.93;;;1.40;;
30533;SDS011;73248;52.398;9.814;2023-11-19T04:56:12;2.33;;;1.70;;
30533;SDS011;73248;52.398;9.814;2023-11-19T04:58:38;2.80;;;1.70;;
30533;SDS011;73248;52.398;9.814;2023-11-19T05:01:04;2.78;;;1.77;;
30533;SDS011;73248;52.398;9.814;2023-11-19T05:03:30;4.43;;;2.15;;
30533;SDS011;73248;52.398;9.814;2023-11-19T05:05:56;5.53;;;2.35;;
30533;SDS011;73248;52.398;9.814;2023-11-19T05:08:22;3.80;;;2.10;;
30533;SDS011;73248;52.398;9.814;2023-11-19T05:10:48;4.55;;;2.72;;
30533;SDS011;73248;52.398;9.814;2023-11-19T05:13:16;7.15;;;2.63;;
30533;SDS011;73248;52.398;9.814;2023-11-19T05:15:42;4.68;;;2.67;;
30533;SDS011;73248;52.398;9.814;2023-11-19T05:18:08;7.18;;;3.75;;
30533;SDS011;73248;52.398;9.814;2023-11-19T05:20:34;10.35;;;3.13;;
30533;SDS011;73248;52.398;9.814;2023-11-19T05:22:59;8.57;;;3.40;;
30533;SDS011;73248;52.398;9.814;2023-11-19T05:25:27;8.07;;;3.20;;
30533;SDS011;73248;52.398;9.814;2023-11-19T05:27:55;7.70;;;3.42;;
30533;SDS011;73248;52.398;9.814;2023-11-19T05:30:21;5.25;;;3.25;;
30533;SDS011;73248;52.398;9.814;2023-11-19T05:32:48;3.92;;;3.28;;
30533;SDS011;73248;52.398;9.814;2023-11-19T05:35:14;6.65;;;3.53;;
30533;SDS011;73248;52.398;9.814;2023-11-19T05:37:40;5.20;;;3.67;;
30533;SDS011;73248;52.398;9.814;2023-11-19T05:40:06;7.75;;;3.67;;
30533;SDS011;73248;52.398;9.814;2023-11-19T05:42:42;7.65;;;5.07;;
30533;SDS011;73248;52.398;9.814;2023-11-19T05:45:11;6.50;;;3.53;;
30533;SDS011;73248;52.398;9.814;2023-11-19T05:47:39;10.82;;;4.07;;
30533;SDS011;73248;52.398;9.814;2023-11-19T05:50:08;7.57;;;4.05;;
30533;SDS011;73248;52.398;9.814;2023-11-19T05:52:35;6.20;;;3.83;;
30533;SDS011;73248;52.398;9.814;2023-11-19T05:55:00;7.80;;;3.47;;
30533;SDS011;73248;52.398;9.814;2023-11-19T05:57:29;6.40;;;3.15;;
30533;SDS011;73248;52.398;9.814;2023-11-19T05:59:59;11.30;;;4.80;;
30533;SDS011;73248;52.398;9.814;2023-11-19T06:02:28;9.20;;;4.10;;
30533;SDS011;73248;52.398;9.814;2023-11-19T06:04:54;9.50;;;4.30;;
30533;SDS011;73248;52.398;9.814;2023-11-19T06:07:19;15.35;;;5.28;;
30533;SDS011;73248;52.398;9.814;2023-11-19T06:09:45;10.00;;;4.85;;
30533;SDS011;73248;52.398;9.814;2023-11-19T06:12:10;9.60;;;4.35;;
30533;SDS011;73248;52.398;9.814;2023-11-19T06:14:37;16.02;;;5.18;;
30533;SDS011;73248;52.398;9.814;2023-11-19T06:17:02;11.30;;;5.22;;
30533;SDS011;73248;52.398;9.814;2023-11-19T06:19:29;18.38;;;5.97;;
30533;SDS011;73248;52.398;9.814;2023-11-19T06:22:00;10.80;;;4.55;;
30533;SDS011;73248;52.398;9.814;2023-11-19T06:24:28;8.40;;;4.63;;
30533;SDS011;73248;52.398;9.814;2023-11-19T06:26:54;12.93;;;4.95;;
30533;SDS011;73248;52.398;9.814;2023-11-19T06:29:19;13.15;;;4.68;;
30533;SDS011;73248;52.398;9.814;2023-11-19T06:31:45;14.02;;;4.75;;
30533;SDS011;73248;52.398;9.814;2023-11-19T06:34:16;13.73;;;4.80;;
30533;SDS011;73248;52.398;9.814;2023-11-19T06:36:41;12.82;;;4.65;;
30533;SDS011;73248;52.398;9.814;2023-11-19T06:39:08;14.15;;;5.00;;
30533;SDS011;73248;52.398;9.814;2023-11-19T06:41:35;14.70;;;4.30;;
30533;SDS011;73248;52.398;9.814;2023-11-19T06:44:04;17.73;;;4.38;;
30533;SDS011;73248;52.398;9.814;2023-11-19T06:46:30;24.85;;;4.82;;
30533;SDS011;73248;52.398;9.814;2023-11-19T06:48:56;13.52;;;4.47;;
30533;SDS011;73248;52.398;9.814;2023-11-19T06:51:22;19.77;;;4.78;;
30533;SDS011;73248;52.398;9.814;2023-11-19T06:53:47;17.48;;;4.40;;
30533;SDS011;73248;52.398;9.814;2023-11-19T06:56:19;23.05;;;4.20;;
30533;SDS011;73248;52.398;9.814;2023-11-19T06:58:48;17.40;;;3.75;;
30533;SDS011;73248;52.398;9.814;2023-11-19T07:01:15;25.83;;;4.55;;
30533;SDS011;73248;52.398;9.814;2023-11-19T07:03:41;14.93;;;3.70;;
30533;SDS011;73248;52.398;9.814;2023-11-19T07:06:06;15.73;;;4.15;;
30533;SDS011;73248;52.398;9.814;2023-11-19T07:11:01;15.32;;;4.15;;
30533;SDS011;73248;52.398;9.814;2023-11-19T07:13:28;20.65;;;4.03;;
30533;SDS011;73248;52.398;9.814;2023-11-19T07:15:56;16.75;;;4.05;;
30533;SDS011;73248;52.398;9.814;2023-11-19T07:18:22;13.07;;;3.40;;
30533;SDS011;73248;52.398;9.814;2023-11-19T07:20:48;25.67;;;3.75;;
30533;SDS011;73248;52.398;9.814;2023-11-19T07:23:13;13.13;;;3.47;;
30533;SDS011;73248;52.398;9.814;2023-11-19T07:25:44;23.33;;;3.88;;
30533;SDS011;73248;52.398;9.814;2023-11-19T07:28:12;16.25;;;3.70;;
30533;SDS011;73248;52.398;9.814;2023-11-19T07:30:41;17.13;;;3.72;;
30533;SDS011;73248;52.398;9.814;2023-11-19T07:33:07;20.80;;;4.25;;
30533;SDS011;73248;52.398;9.814;2023-11-19T07:35:33;22.13;;;4.00;;
30533;SDS011;73248;52.398;9.814;2023-11-19T07:37:59;21.15;;;3.13;;
30533;SDS011;73248;52.398;9.814;2023-11-19T07:40:24;17.63;;;3.70;;
30533;SDS011;73248;52.398;9.814;2023-11-19T07:42:50;24.05;;;3.40;;
30533;SDS011;73248;52.398;9.814;2023-11-19T07:45:16;18.25;;;3.63;;
30533;SDS011;73248;52.398;9.814;2023-11-19T07:47:42;17.55;;;3.63;;
30533;SDS011;73248;52.398;9.814;2023-11-19T07:50:11;25.15;;;3.40;;
30533;SDS011;73248;52.398;9.814;2023-11-19T07:52:41;39.53;;;4.40;;
30533;SDS011;73248;52.398;9.814;2023-11-19T07:55:07;24.58;;;3.40;;
30533;SDS011;73248;52.398;9.814;2023-11-19T07:57:33;24.38;;;3.92;;
30533;SDS011;73248;52.398;9.814;2023-11-19T07:59:59;28.17;;;3.80;;
30533;SDS011;73248;52.398;9.814;2023-11-19T08:02:26;17.55;;;3.08;;
30533;SDS011;73248;52.398;9.814;2023-11-19T08:04:54;22.05;;;4.32;;
30533;SDS011;73248;52.398;9.814;2023-11-19T08:07:20;21.75;;;3.70;;
30533;SDS011;73248;52.398;9.814;2023-11-19T08:12:13;35.00;;;4.22;;
30533;SDS011;73248;52.398;9.814;2023-11-19T08:14:40;28.42;;;3.97;;
30533;SDS011;73248;52.398;9.814;2023-11-19T08:17:06;23.80;;;3.63;;
30533;SDS011;73248;52.398;9.814;2023-11-19T08:19:34;26.30;;;4.00;;
30533;SDS011;73248;52.398;9.814;2023-11-19T08:22:04;23.45;;;4.40;;
30533;SDS011;73248;52.398;9.814;2023-11-19T08:24:30;29.38;;;4.00;;
30533;SDS011;73248;52.398;9.814;2023-11-19T08:26:55;27.50;;;4.10;;
30533;SDS011;73248;52.398;9.814;2023-11-19T08:29:21;28.98;;;4.57;;
30533;SDS011;73248;52.398;9.814;2023-11-19T08:31:49;26.15;;;3.92;;
30533;SDS011;73248;52.398;9.814;2023-11-19T08:36:40;29.52;;;4.47;;
30533;SDS011;73248;52.398;9.814;2023-11-19T08:39:06;33.92;;;4.32;;
30533;SDS011;73248;52.398;9.814;2023-11-19T08:41:33;33.15;;;4.00;;
30533;SDS011;73248;52.398;9.814;2023-11-19T08:44:00;32.45;;;4.63;;
30533;SDS011;73248;52.398;9.814;2023-11-19T08:46:26;33.58;;;5.40;;
30533;SDS011;73248;52.398;9.814;2023-11-19T08:48:52;36.97;;;4.45;;
30533;SDS011;73248;52.398;9.814;2023-11-19T08:51:17;30.48;;;4.32;;
30533;SDS011;73248;52.398;9.814;2023-11-19T08:53:43;32.72;;;4.10;;
30533;SDS011;73248;52.398;9.814;2023-11-19T08:56:11;25.48;;;4.38;;
30533;SDS011;73248;52.398;9.814;2023-11-19T08:58:39;24.25;;;4.00;;
30533;SDS011;73248;52.398;9.814;2023-11-19T09:01:05;22.95;;;3.67;;
30533;SDS011;73248;52.398;9.814;2023-11-19T09:03:31;29.58;;;5.10;;
30533;SDS011;73248;52.398;9.814;2023-11-19T09:05:57;25.75;;;4.43;;
30533;SDS011;73248;52.398;9.814;2023-11-19T09:08:23;28.02;;;4.80;;
30533;SDS011;73248;52.398;9.814;2023-11-19T09:10:50;36.65;;;4.78;;
30533;SDS011;73248;52.398;9.814;2023-11-19T09:13:16;33.83;;;4.88;;
30533;SDS011;73248;52.398;9.814;2023-11-19T09:15:45;27.67;;;4.55;;
30533;SDS011;73248;52.398;9.814;2023-11-19T09:18:13;30.10;;;5.03;;
30533;SDS011;73248;52.398;9.814;2023-11-19T09:20:39;32.33;;;5.70;;
30533;SDS011;73248;52.398;9.814;2023-11-19T09:23:07;24.13;;;3.97;;
30533;SDS011;73248;52.398;9.814;2023-11-19T09:25:34;27.08;;;4.45;;
30533;SDS011;73248;52.398;9.814;2023-11-19T09:27:59;28.73;;;4.05;;
30533;SDS011;73248;52.398;9.814;2023-11-19T09:30:27;33.20;;;4.32;;
30533;SDS011;73248;52.398;9.814;2023-11-19T09:32:56;32.60;;;4.50;;
30533;SDS011;73248;52.398;9.814;2023-11-19T09:35:24;31.13;;;4.30;;
30533;SDS011;73248;52.398;9.814;2023-11-19T09:40:17;36.47;;;5.40;;
30533;SDS011;73248;52.398;9.814;2023-11-19T09:42:44;29.70;;;4.57;;
30533;SDS011;73248;52.398;9.814;2023-11-19T09:45:16;29.77;;;4.80;;
30533;SDS011;73248;52.398;9.814;2023-11-19T09:47:45;24.23;;;5.10;;
30533;SDS011;73248;52.398;9.814;2023-11-19T09:50:17;31.30;;;4.95;;
30533;SDS011;73248;52.398;9.814;2023-11-19T09:52:44;36.70;;;5.15;;
30533;SDS011;73248;52.398;9.814;2023-11-19T09:55:11;31.45;;;4.43;;
30533;SDS011;73248;52.398;9.814;2023-11-19T09:57:40;31.80;;;5.05;;
30533;SDS011;73248;52.398;9.814;2023-11-19T10:00:09;38.20;;;4.68;;
30533;SDS011;73248;52.398;9.814;2023-11-19T10:02:36;30.90;;;3.73;;
30533;SDS011;73248;52.398;9.814;2023-11-19T10:05:06;31.80;;;4.95;;
30533;SDS011;73248;52.398;9.814;2023-11-19T10:07:35;35.40;;;4.20;;
30533;SDS011;73248;52.398;9.814;2023-11-19T10:10:03;27.70;;;4.50;;
30533;SDS011;73248;52.398;9.814;2023-11-19T10:12:32;38.80;;;4.60;;
30533;SDS011;73248;52.398;9.814;2023-11-19T10:14:58;34.58;;;5.85;;
30533;SDS011;73248;52.398;9.814;2023-11-19T10:17:28;36.78;;;4.68;;
30533;SDS011;73248;52.398;9.814;2023-11-19T10:19:57;33.10;;;4.43;;
30533;SDS011;73248;52.398;9.814;2023-11-19T10:22:23;25.98;;;4.80;;
30533;SDS011;73248;52.398;9.814;2023-11-19T10:24:51;26.48;;;4.15;;
30533;SDS011;73248;52.398;9.814;2023-11-19T10:27:20;37.47;;;4.80;;
30533;SDS011;73248;52.398;9.814;2023-11-19T10:29:49;28.23;;;4.90;;
30533;SDS011;73248;52.398;9.814;2023-11-19T10:32:15;40.15;;;5.38;;
30533;SDS011;73248;52.398;9.814;2023-11-19T10:34:44;28.38;;;4.22;;
30533;SDS011;73248;52.398;9.814;2023-11-19T10:37:15;29.15;;;3.97;;
30533;SDS011;73248;52.398;9.814;2023-11-19T10:39:53;27.95;;;4.15;;
30533;SDS011;73248;52.398;9.814;2023-11-19T10:42:19;29.67;;;4.82;;
30533;SDS011;73248;52.398;9.814;2023-11-19T10:44:49;35.97;;;4.32;;
30533;SDS011;73248;52.398;9.814;2023-11-19T10:47:15;24.50;;;4.40;;
30533;SDS011;73248;52.398;9.814;2023-11-19T10:49:44;31.58;;;3.88;;
30533;SDS011;73248;52.398;9.814;2023-11-19T10:52:11;29.20;;;4.20;;
30533;SDS011;73248;52.398;9.814;2023-11-19T10:54:44;25.05;;;4.05;;
30533;SDS011;73248;52.398;9.814;2023-11-19T10:57:15;26.35;;;4.15;;
30533;SDS011;73248;52.398;9.814;2023-11-19T10:59:46;20.13;;;3.53;;
30533;SDS011;73248;52.398;9.814;2023-11-19T11:02:12;25.55;;;3.95;;
30533;SDS011;73248;52.398;9.814;2023-11-19T11:04:44;32.47;;;3.97;;
30533;SDS011;73248;52.398;9.814;2023-11-19T11:07:12;22.80;;;3.80;;
30533;SDS011;73248;52.398;9.814;2023-11-19T11:09:39;43.97;;;4.13;;
30533;SDS011;73248;52.398;9.814;2023-11-19T11:12:06;31.30;;;3.80;;
30533;SDS011;73248;52.398;9.814;2023-11-19T11:14:37;29.90;;;4.97;;
30533;SDS011;73248;52.398;9.814;2023-11-19T11:17:05;24.52;;;4.22;;
30533;SDS011;73248;52.398;9.814;2023-11-19T11:19:33;28.10;;;4.35;;
30533;SDS011;73248;52.398;9.814;2023-11-19T11:22:01;28.08;;;4.00;;
30533;SDS011;73248;52.398;9.814;2023-11-19T11:30:13;34.67;;;5.15;;
30533;SDS011;73248;52.398;9.814;2023-11-19T11:33:24;27.00;;;3.70;;
30533;SDS011;73248;52.398;9.814;2023-11-19T11:36:05;22.10;;;3.55;;
30533;SDS011;73248;52.398;9.814;2023-11-19T11:38:41;26.23;;;4.47;;
30533;SDS011;73248;52.398;9.814;2023-11-19T11:41:23;29.15;;;4.03;;
30533;SDS011;73248;52.398;9.814;2023-11-19T11:43:54;29.85;;;4.40;;
30533;SDS011;73248;52.398;9.814;2023-11-19T11:48:57;34.47;;;4.85;;
30533;SDS011;73248;52.398;9.814;2023-11-19T11:54:31;32.92;;;5.40;;
30533;SDS011;73248;52.398;9.814;2023-11-19T11:59:47;40.40;;;4.78;;
30533;SDS011;73248;52.398;9.814;2023-11-19T12:02:14;25.52;;;4.45;;
30533;SDS011;73248;52.398;9.814;2023-11-19T12:04:42;31.92;;;5.00;;
30533;SDS011;73248;52.398;9.814;2023-11-19T12:07:12;34.55;;;4.53;;
30533;SDS011;73248;52.398;9.814;2023-11-19T12:09:45;27.27;;;4.30;;
30533;SDS011;73248;52.398;9.814;2023-11-19T12:20:01;37.05;;;4.70;;
30533;SDS011;73248;52.398;9.814;2023-11-19T12:22:30;28.33;;;4.93;;
30533;SDS011;73248;52.398;9.814;2023-11-19T12:24:56;29.08;;;4.68;;
30533;SDS011;73248;52.398;9.814;2023-11-19T12:27:22;35.35;;;5.18;;
30533;SDS011;73248;52.398;9.814;2023-11-19T12:29:49;37.15;;;4.38;;
30533;SDS011;73248;52.398;9.814;2023-11-19T12:32:15;33.17;;;5.20;;
30533;SDS011;73248;52.398;9.814;2023-11-19T12:34:42;23.85;;;4.85;;
30533;SDS011;73248;52.398;9.814;2023-11-19T12:37:12;30.23;;;4.82;;
30533;SDS011;73248;52.398;9.814;2023-11-19T12:42:03;35.75;;;5.13;;
30533;SDS011;73248;52.398;9.814;2023-11-19T12:44:32;29.95;;;4.90;;
30533;SDS011;73248;52.398;9.814;2023-11-19T12:47:05;30.90;;;4.63;;
30533;SDS011;73248;52.398;9.814;2023-11-19T12:49:35;30.42;;;4.82;;
30533;SDS011;73248;52.398;9.814;2023-11-19T12:52:01;33.83;;;4.97;;
30533;SDS011;73248;52.398;9.814;2023-11-19T12:54:32;31.75;;;4.88;;
30533;SDS011;73248;52.398;9.814;2023-11-19T12:56:58;30.73;;;4.03;;
30533;SDS011;73248;52.398;9.814;2023-11-19T12:59:27;32.10;;;4.88;;
30533;SDS011;73248;52.398;9.814;2023-11-19T13:01:53;19.23;;;3.67;;
30533;SDS011;73248;52.398;9.814;2023-11-19T13:04:30;26.02;;;4.28;;
30533;SDS011;73248;52.398;9.814;2023-11-19T13:06:59;23.45;;;4.00;;
30533;SDS011;73248;52.398;9.814;2023-11-19T13:09:26;23.77;;;3.92;;
30533;SDS011;73248;52.398;9.814;2023-11-19T13:11:53;14.32;;;3.35;;
30533;SDS011;73248;52.398;9.814;2023-11-19T13:14:19;18.42;;;3.88;;
30533;SDS011;73248;52.398;9.814;2023-11-19T13:16:45;24.80;;;3.47;;
30533;SDS011;73248;52.398;9.814;2023-11-19T13:19:14;28.80;;;3.88;;
30533;SDS011;73248;52.398;9.814;2023-11-19T13:21:44;25.25;;;3.55;;
30533;SDS011;73248;52.398;9.814;2023-11-19T13:24:13;32.03;;;4.43;;
30533;SDS011;73248;52.398;9.814;2023-11-19T13:26:41;22.58;;;3.10;;
30533;SDS011;73248;52.398;9.814;2023-11-19T13:29:06;27.70;;;3.53;;
30533;SDS011;73248;52.398;9.814;2023-11-19T13:31:32;30.00;;;3.47;;
30533;SDS011;73248;52.398;9.814;2023-11-19T13:33:58;24.85;;;4.57;;
30533;SDS011;73248;52.398;9.814;2023-11-19T13:36:23;22.95;;;4.32;;
30533;SDS011;73248;52.398;9.814;2023-11-19T13:38:50;24.92;;;3.95;;
30533;SDS011;73248;52.398;9.814;2023-11-19T13:41:16;32.55;;;4.95;;
30533;SDS011;73248;52.398;9.814;2023-11-19T13:43:42;26.23;;;3.75;;
30533;SDS011;73248;52.398;9.814;2023-11-19T13:46:10;36.13;;;4.65;;
30533;SDS011;73248;52.398;9.814;2023-11-19T13:51:02;28.20;;;3.67;;
30533;SDS011;73248;52.398;9.814;2023-11-19T13:53:27;23.27;;;3.85;;
30533;SDS011;73248;52.398;9.814;2023-11-19T13:55:53;28.13;;;4.35;;
30533;SDS011;73248;52.398;9.814;2023-11-19T14:00:47;26.67;;;4.05;;
30533;SDS011;73248;52.398;9.814;2023-11-19T14:03:12;25.55;;;3.70;;
30533;SDS011;73248;52.398;9.814;2023-11-19T14:05:38;19.85;;;3.75;;
30533;SDS011;73248;52.398;9.814;2023-11-19T14:08:06;25.35;;;5.13;;
30533;SDS011;73248;52.398;9.814;2023-11-19T14:10:38;27.67;;;5.03;;
30533;SDS011;73248;52.398;9.814;2023-11-19T14:13:05;32.80;;;5.32;;
30533;SDS011;73248;52.398;9.814;2023-11-19T14:15:32;21.90;;;3.53;;
30533;SDS011;73248;52.398;9.814;2023-11-19T14:18:00;30.23;;;5.10;;
30533;SDS011;73248;52.398;9.814;2023-11-19T14:20:28;34.75;;;4.68;;
30533;SDS011;73248;52.398;9.814;2023-11-19T14:22:59;21.90;;;4.07;;
30533;SDS011;73248;52.398;9.814;2023-11-19T14:27:50;30.27;;;4.65;;
30533;SDS011;73248;52.398;9.814;2023-11-19T14:30:16;32.20;;;4.85;;
30533;SDS011;73248;52.398;9.814;2023-11-19T14:32:42;31.60;;;4.97;;
30533;SDS011;73248;52.398;9.814;2023-11-19T14:35:12;29.77;;;3.83;;
30533;SDS011;73248;52.398;9.814;2023-11-19T14:37:42;29.48;;;3.88;;
30533;SDS011;73248;52.398;9.814;2023-11-19T14:40:08;33.22;;;4.50;;
30533;SDS011;73248;52.398;9.814;2023-11-19T14:45:02;24.38;;;4.00;;
30533;SDS011;73248;52.398;9.814;2023-11-19T14:47:28;27.33;;;4.03;;
30533;SDS011;73248;52.398;9.814;2023-11-19T14:49:55;26.52;;;3.97;;
30533;SDS011;73248;52.398;9.814;2023-11-19T14:52:21;24.90;;;3.63;;
30533;SDS011;73248;52.398;9.814;2023-11-19T14:54:46;27.02;;;4.18;;
30533;SDS011;73248;52.398;9.814;2023-11-19T14:57:12;19.58;;;3.28;;
30533;SDS011;73248;52.398;9.814;2023-11-19T14:59:39;21.52;;;3.33;;
30533;SDS011;73248;52.398;9.814;2023-11-19T15:02:04;24.10;;;3.47;;
30533;SDS011;73248;52.398;9.814;2023-11-19T15:04:33;25.40;;;3.85;;
30533;SDS011;73248;52.398;9.814;2023-11-19T15:06:59;25.27;;;3.50;;
30533;SDS011;73248;52.398;9.814;2023-11-19T15:09:25;19.48;;;3.25;;
30533;SDS011;73248;52.398;9.814;2023-11-19T15:11:54;21.45;;;3.80;;
30533;SDS011;73248;52.398;9.814;2023-11-19T15:14:20;16.27;;;3.17;;
30533;SDS011;73248;52.398;9.814;2023-11-19T15:16:46;23.35;;;3.78;;
30533;SDS011;73248;52.398;9.814;2023-11-19T15:19:12;20.30;;;3.65;;
30533;SDS011;73248;52.398;9.814;2023-11-19T15:21:39;22.30;;;3.58;;
30533;SDS011;73248;52.398;9.814;2023-11-19T15:24:05;22.50;;;3.63;;
30533;SDS011;73248;52.398;9.814;2023-11-19T15:26:33;23.90;;;4.03;;
30533;SDS011;73248;52.398;9.814;2023-11-19T15:29:00;25.25;;;3.42;;
30533;SDS011;73248;52.398;9.814;2023-11-19T15:31:26;31.50;;;3.80;;
30533;SDS011;73248;52.398;9.814;2023-11-19T15:33:52;20.40;;;4.15;;